Time;durP1;ratioP1;P1;durP2;ratioP2;P2;SDS_P1;SDS_P2;PMS_P1;PMS_P2;Temp;Humidity;BMP_temperature;BMP_pressure;BME280_temperature;BME280_humidity;BME280_pressure;Samples;Min_cycle;Max_cycle;Signal;HPM_P1;HPM_P2
2022/05/18 00:00:34;;;;;;;;;7.67;7.67;;;;;22.79;35.84;101966.90;110612;1258;20311;-47
2022/05/18 00:03:04;;;;;;;;;11.00;10.00;;;;;22.79;35.62;101967.69;110634;1259;22275;-47
2022/05/18 00:05:32;;;;;;;;;9.00;8.00;;;;;22.80;35.58;101971.04;110488;1259;20471;-47
2022/05/18 00:07:59;;;;;;;;;9.00;7.67;;;;;22.79;35.46;101973.63;110461;1259;22738;-46
2022/05/18 00:10:26;;;;;;;;;10.33;9.00;;;;;22.79;35.47;101974.69;110445;1258;18473;-47
2022/05/18 00:12:54;;;;;;;;;7.00;7.00;;;;;22.79;35.66;101971.98;110362;1260;18823;-48
2022/05/18 00:15:21;;;;;;;;;6.00;6.00;;;;;22.79;35.62;101975.65;110642;1258;21870;-47
2022/05/18 00:17:48;;;;;;;;;7.00;7.00;;;;;22.79;35.46;101976.88;110517;1259;20442;-48
2022/05/18 00:20:15;;;;;;;;;6.33;5.33;;;;;22.79;35.53;101978.59;110571;1258;18759;-49
2022/05/18 00:22:42;;;;;;;;;9.00;7.00;;;;;22.79;35.51;101983.09;110588;1258;19482;-47
2022/05/18 00:25:10;;;;;;;;;9.00;6.67;;;;;22.78;35.53;101983.75;110360;1259;22348;-47
2022/05/18 00:27:37;;;;;;;;;7.00;6.00;;;;;22.79;35.62;101986.81;110315;1261;18911;-49
2022/05/18 00:30:04;;;;;;;;;7.00;7.00;;;;;22.79;35.65;101982.95;110668;1259;19583;-48
2022/05/18 00:32:32;;;;;;;;;8.33;7.00;;;;;22.79;35.48;101982.61;110352;1259;18558;-47
2022/05/18 00:34:59;;;;;;;;;8.00;7.00;;;;;22.78;35.59;101982.10;110465;1259;19106;-47
2022/05/18 00:37:26;;;;;;;;;9.00;7.00;;;;;22.79;35.63;101981.32;110486;1259;22354;-49
2022/05/18 00:39:53;;;;;;;;;6.00;6.00;;;;;22.79;35.54;101981.15;110448;1259;18380;-48
2022/05/18 00:42:21;;;;;;;;;7.00;7.00;;;;;22.78;35.61;101981.41;110439;1258;18729;-49
2022/05/18 00:44:48;;;;;;;;;9.67;9.67;;;;;22.78;35.45;101982.14;110492;1258;19480;-47
2022/05/18 00:47:15;;;;;;;;;9.67;9.00;;;;;22.79;35.52;101981.19;110458;1258;20270;-48
2022/05/18 00:49:42;;;;;;;;;6.33;6.00;;;;;22.78;35.53;101981.55;110478;1259;18948;-48
2022/05/18 00:52:10;;;;;;;;;8.33;6.00;;;;;22.79;35.37;101985.00;110476;1259;19491;-47
2022/05/18 00:54:37;;;;;;;;;7.00;7.00;;;;;22.79;35.46;101985.89;110437;1261;18485;-47
2022/05/18 00:57:04;;;;;;;;;7.67;7.67;;;;;22.78;35.46;101990.38;110660;1258;19017;-48
2022/05/18 00:59:31;;;;;;;;;9.00;6.67;;;;;22.77;35.46;101989.33;110364;1259;19663;-46
2022/05/18 01:01:58;;;;;;;;;9.50;9.00;;;;;22.78;35.35;101992.17;110404;1261;23483;-47
2022/05/18 01:04:26;;;;;;;;;7.00;6.67;;;;;22.78;35.42;101996.17;110337;1261;18736;-46
2022/05/18 01:06:53;;;;;;;;;10.00;7.00;;;;;22.78;35.34;101993.79;110329;1261;19446;-45
2022/05/18 01:09:20;;;;;;;;;9.00;7.00;;;;;22.79;35.26;101999.19;110305;1261;18741;-45
2022/05/18 01:11:47;;;;;;;;;7.00;6.00;;;;;22.79;35.40;101995.88;110416;1260;22798;-47
2022/05/18 01:14:15;;;;;;;;;6.33;6.00;;;;;22.80;35.24;101997.08;110349;1261;20022;-48
2022/05/18 01:16:42;;;;;;;;;6.67;6.67;;;;;22.79;35.42;101998.77;110376;1261;22766;-48
2022/05/18 01:19:09;;;;;;;;;6.00;5.67;;;;;22.78;35.32;101995.60;110357;1261;19455;-47
2022/05/18 01:21:36;;;;;;;;;9.00;7.00;;;;;22.79;35.16;101996.25;110285;1261;19570;-46
2022/05/18 01:24:04;;;;;;;;;9.00;6.50;;;;;22.78;35.24;101999.77;110352;1261;19783;-45
2022/05/18 01:26:31;;;;;;;;;7.00;7.00;;;;;22.78;35.20;102002.33;110388;1260;19043;-47
2022/05/18 01:28:59;;;;;;;;;6.00;6.00;;;;;22.78;35.41;101999.46;110282;1259;19612;-47
2022/05/18 01:31:26;;;;;;;;;6.33;6.00;;;;;22.79;35.40;102002.06;110301;1261;23436;-48
2022/05/18 01:33:53;;;;;;;;;6.00;5.67;;;;;22.78;35.25;102002.33;110261;1262;18664;-43
2022/05/18 01:36:45;;;;;;;;;8.33;7.00;;;;;22.78;35.32;102008.91;110337;1259;19522;-46
2022/05/18 01:39:36;;;;;;;;;7.67;6.00;;;;;22.77;35.30;102014.28;110318;1259;22384;-45
2022/05/18 01:42:28;;;;;;;;;6.67;6.33;;;;;22.78;35.38;102023.38;110278;1261;23188;-52
2022/05/18 01:45:20;;;;;;;;;7.00;7.00;;;;;22.77;35.41;102023.98;110311;1261;22466;-48
2022/05/18 01:48:12;;;;;;;;;9.00;7.00;;;;;22.77;35.27;102025.65;110257;1261;18413;-47
2022/05/18 01:51:03;;;;;;;;;9.00;7.00;;;;;22.77;35.26;102024.72;110356;1260;18805;-47
2022/05/18 01:53:55;;;;;;;;;6.33;5.33;;;;;22.76;35.19;102025.16;110371;1260;19634;-46
2022/05/18 01:56:22;;;;;;;;;7.00;6.00;;;;;22.76;35.23;102027.55;110522;1260;18503;-47
2022/05/18 01:58:49;;;;;;;;;6.00;5.00;;;;;22.76;35.18;102028.30;110396;1259;18985;-49
2022/05/18 02:01:16;;;;;;;;;9.00;6.00;;;;;22.76;35.24;102031.79;110382;1261;20385;-47
2022/05/18 02:03:43;;;;;;;;;7.00;6.00;;;;;22.76;35.12;102036.80;110396;1261;20316;-48
2022/05/18 02:06:11;;;;;;;;;5.33;5.33;;;;;22.77;35.14;102039.86;110407;1261;19062;-50
2022/05/18 02:08:38;;;;;;;;;6.33;6.33;;;;;22.76;35.32;102042.48;110439;1262;19962;-49
2022/05/18 02:11:05;;;;;;;;;7.33;6.67;;;;;22.77;35.22;102046.57;110401;1261;18588;-46
2022/05/18 02:13:32;;;;;;;;;7.67;7.00;;;;;22.77;35.25;102047.09;110402;1260;22514;-47
2022/05/18 02:16:00;;;;;;;;;7.00;6.33;;;;;22.76;35.27;102053.17;110410;1260;19855;-48
2022/05/18 02:18:27;;;;;;;;;9.00;7.00;;;;;22.77;35.31;102057.17;110373;1261;18370;-48
2022/05/18 02:20:54;;;;;;;;;6.50;6.50;;;;;22.77;35.16;102056.96;110398;1262;18725;-47
2022/05/18 02:23:21;;;;;;;;;7.00;6.00;;;;;22.77;35.23;102059.00;110412;1260;22186;-47
2022/05/18 02:25:48;;;;;;;;;6.00;6.00;;;;;22.76;35.05;102060.70;110415;1261;22082;-48
2022/05/18 02:28:16;;;;;;;;;5.33;5.33;;;;;22.76;35.13;102060.93;110384;1259;18816;-48
2022/05/18 02:30:43;;;;;;;;;6.33;6.33;;;;;22.76;35.08;102061.40;110344;1260;21973;-49
2022/05/18 02:33:10;;;;;;;;;7.00;5.00;;;;;22.77;35.14;102069.38;110377;1260;20026;-46
2022/05/18 02:35:40;;;;;;;;;7.00;6.50;;;;;22.75;35.13;102065.68;110346;1259;18850;-46
2022/05/18 02:38:09;;;;;;;;;7.00;6.67;;;;;22.74;35.03;102063.25;110350;1261;19435;-49
2022/05/18 02:40:36;;;;;;;;;6.33;6.33;;;;;22.75;35.32;102068.48;110343;1259;19058;-47
2022/05/18 02:43:04;;;;;;;;;9.00;7.00;;;;;22.75;35.06;102065.04;110349;1261;20726;-47
2022/05/18 02:45:31;;;;;;;;;5.67;5.33;;;;;22.75;35.10;102066.50;110341;1259;19566;-47
2022/05/18 02:47:59;;;;;;;;;7.00;6.00;;;;;22.75;35.02;102069.40;110368;1260;20085;-47
2022/05/18 02:50:27;;;;;;;;;5.67;5.67;;;;;22.75;35.09;102066.29;110320;1261;18890;-47
2022/05/18 02:52:55;;;;;;;;;6.00;6.00;;;;;22.75;35.17;102068.52;110309;1261;19471;-48
2022/05/18 02:58:07;;;;;;;;;7.67;6.67;;;;;22.75;34.98;102079.45;110323;1262;18873;-48
2022/05/18 03:00:34;;;;;;;;;4.33;4.33;;;;;22.74;35.15;102084.19;110321;1259;19505;-47
2022/05/18 03:03:01;;;;;;;;;6.00;6.00;;;;;22.74;35.10;102092.59;110370;1259;18826;-47
2022/05/18 03:05:29;;;;;;;;;6.00;5.00;;;;;22.74;35.19;102098.81;110321;1261;21078;-47
2022/05/18 03:07:58;;;;;;;;;6.00;5.33;;;;;22.74;35.24;102094.99;110359;1260;22235;-47
2022/05/18 03:10:25;;;;;;;;;5.33;5.33;;;;;22.74;35.13;102096.66;110306;1261;18745;-45
2022/05/18 03:12:52;;;;;;;;;5.50;4.00;;;;;22.74;35.18;102092.66;110341;1259;18773;-47
2022/05/18 03:15:20;;;;;;;;;7.00;5.50;;;;;22.73;35.01;102091.61;110342;1260;22241;-48
2022/05/18 03:17:47;;;;;;;;;6.50;5.50;;;;;22.73;35.03;102094.92;110353;1261;18431;-47
2022/05/18 03:23:33;;;;;;;;;5.00;5.00;;;;;22.73;35.09;102100.55;110327;1261;18916;-49
2022/05/18 03:25:52;;;;;;;;;7.00;6.67;;;;;22.75;35.07;102104.60;110300;1260;18368;-48
2022/05/18 03:28:20;;;;;;;;;5.00;5.00;;;;;22.75;35.16;102109.27;110311;1259;18792;-46
2022/05/18 03:30:47;;;;;;;;;5.00;5.00;;;;;22.76;35.05;102106.52;110339;1259;19556;-49
2022/05/18 03:33:14;;;;;;;;;5.33;5.33;;;;;22.75;35.14;102111.27;110368;1260;18677;-48
2022/05/18 03:35:41;;;;;;;;;5.00;5.00;;;;;22.75;35.09;102112.55;110370;1260;18885;-47
2022/05/18 03:38:09;;;;;;;;;6.00;5.50;;;;;22.75;35.08;102117.69;110262;1261;20571;-46
2022/05/18 03:40:37;;;;;;;;;5.00;5.00;;;;;22.75;34.98;102119.45;110293;1260;19000;-47
2022/05/18 03:43:29;;;;;;;;;6.00;5.00;;;;;22.76;35.16;102123.55;110282;1260;18757;-47
2022/05/18 03:46:21;;;;;;;;;6.67;6.33;;;;;22.76;35.05;102123.77;110309;1261;20062;-49
2022/05/18 03:49:12;;;;;;;;;9.00;6.00;;;;;22.75;35.08;102128.37;110336;1261;18427;-48
2022/05/18 03:52:03;;;;;;;;;5.00;5.00;;;;;22.75;35.02;102132.92;110359;1259;18885;-47
2022/05/18 03:54:55;;;;;;;;;9.00;7.00;;;;;22.75;35.01;102136.61;110318;1260;19620;-48
2022/05/18 03:57:46;;;;;;;;;6.00;6.00;;;;;22.75;34.97;102139.52;110358;1261;18388;-48
2022/05/18 04:00:38;;;;;;;;;5.00;5.00;;;;;22.76;35.05;102145.29;110385;1260;18764;-47
2022/05/18 04:03:29;;;;;;;;;3.00;3.00;;;;;22.75;34.99;102147.34;110391;1261;19532;-48
2022/05/18 04:06:20;;;;;;;;;6.00;5.67;;;;;22.76;35.05;102151.85;110421;1260;18510;-48
2022/05/18 04:09:12;;;;;;;;;5.00;5.00;;;;;22.76;35.07;102157.66;110401;1261;18672;-47
2022/05/18 04:12:03;;;;;;;;;7.33;6.33;;;;;22.76;34.98;102160.02;110385;1261;19528;-46
2022/05/18 04:14:54;;;;;;;;;6.00;6.00;;;;;22.76;35.13;102158.21;110346;1259;18645;-47
2022/05/18 04:17:45;;;;;;;;;5.00;5.00;;;;;22.76;35.20;102160.73;110392;1260;18925;-48
2022/05/18 04:20:38;;;;;;;;;5.00;4.00;;;;;22.76;35.12;102158.07;110301;1260;19640;-46
2022/05/18 04:23:29;;;;;;;;;7.33;6.00;;;;;22.76;35.08;102162.70;110339;1259;18473;-47
2022/05/18 04:26:21;;;;;;;;;6.00;6.00;;;;;22.76;35.14;102161.63;110365;1259;18854;-47
2022/05/18 04:29:12;;;;;;;;;5.33;5.00;;;;;22.77;35.12;102161.20;110354;1261;24275;-46
2022/05/18 04:32:03;;;;;;;;;6.00;6.00;;;;;22.77;35.25;102163.52;110357;1260;18583;-46
2022/05/18 04:34:54;;;;;;;;;5.50;5.50;;;;;22.78;35.25;102171.88;110304;1261;18877;-47
2022/05/18 04:37:45;;;;;;;;;6.67;6.67;;;;;22.77;35.08;102177.58;110375;1261;20310;-46
2022/05/18 04:40:37;;;;;;;;;6.00;5.00;;;;;22.78;35.18;102185.38;110309;1261;18546;-47
2022/05/18 04:43:32;;;;;;;;;5.67;5.67;;;;;22.78;35.16;102182.23;110306;1261;18776;-46
2022/05/18 04:46:23;;;;;;;;;7.00;6.00;;;;;22.78;35.12;102189.30;110312;1260;24420;-48
2022/05/18 04:49:14;;;;;;;;;6.00;6.00;;;;;22.79;35.09;102191.95;110345;1261;18426;-47
2022/05/18 04:52:07;;;;;;;;;5.67;5.67;;;;;22.79;35.21;102194.14;110357;1260;21806;-48
2022/05/18 04:54:58;;;;;;;;;3.33;3.33;;;;;22.81;35.16;102196.36;110342;1261;19614;-49
2022/05/18 04:57:49;;;;;;;;;5.00;5.00;;;;;22.82;35.18;102192.57;110355;1260;18621;-47
2022/05/18 05:00:40;;;;;;;;;6.00;6.00;;;;;22.84;35.15;102197.70;110328;1259;19251;-48
2022/05/18 05:03:31;;;;;;;;;6.00;6.00;;;;;22.86;35.24;102200.22;110343;1260;19515;-47
2022/05/18 05:06:22;;;;;;;;;5.00;5.00;;;;;22.88;35.35;102203.27;110338;1260;22178;-49
2022/05/18 05:09:13;;;;;;;;;6.00;6.00;;;;;22.90;35.36;102203.44;110370;1261;18882;-48
2022/05/18 05:12:05;;;;;;;;;7.00;6.00;;;;;22.94;35.62;102206.85;110219;1261;19682;-48
2022/05/18 05:14:57;;;;;;;;;6.00;5.33;;;;;22.93;35.98;102209.02;110049;1261;19888;-47
2022/05/18 05:17:48;;;;;;;;;6.00;4.33;;;;;22.87;36.15;102210.46;110073;1259;18868;-48
2022/05/18 05:20:39;;;;;;;;;9.00;7.50;;;;;22.82;36.00;102210.97;110092;1259;19596;-47
2022/05/18 05:23:32;;;;;;;;;5.00;5.00;;;;;22.76;35.38;102214.94;110137;1259;18758;-49
2022/05/18 05:26:24;;;;;;;;;6.00;5.00;;;;;22.70;34.81;102217.10;110189;1259;19590;-48
2022/05/18 05:29:15;;;;;;;;;5.00;5.00;;;;;22.67;35.46;102221.79;110223;1259;19983;-47
2022/05/18 05:32:07;;;;;;;;;6.00;6.00;;;;;22.63;34.71;102219.98;110218;1258;18480;-47
2022/05/18 05:34:59;;;;;;;;;5.67;5.00;;;;;22.69;34.91;102220.70;110166;1259;18690;-48
2022/05/18 05:37:29;;;;;;;;;5.00;5.00;;;;;22.77;34.83;102216.25;110347;1260;20532;-51
2022/05/18 05:39:57;;;;;;;;;5.50;5.00;;;;;22.86;34.63;102216.61;110418;1261;18965;-48
2022/05/18 05:42:24;;;;;;;;;6.00;5.67;;;;;22.93;34.92;102217.41;109881;1259;700479;-49
2022/05/18 05:44:51;;;;;;;;;5.00;5.00;;;;;22.97;35.03;102216.66;110373;1261;19616;-48
2022/05/18 05:47:18;;;;;;;;;6.00;5.67;;;;;23.02;35.14;102218.08;110408;1261;19290;-49
2022/05/18 05:49:46;;;;;;;;;5.00;5.00;;;;;23.04;35.02;102218.61;110370;1259;22479;-49
2022/05/18 05:52:13;;;;;;;;;5.33;5.00;;;;;23.06;35.16;102226.80;110314;1260;19560;-48
2022/05/18 05:54:40;;;;;;;;;7.00;6.00;;;;;23.08;35.20;102225.71;110267;1262;18879;-48
2022/05/18 05:57:07;;;;;;;;;6.00;5.67;;;;;23.14;35.68;102226.30;110293;1260;18788;-49
2022/05/18 05:59:35;;;;;;;;;6.00;6.00;;;;;23.20;35.80;102224.06;110359;1261;19628;-49
2022/05/18 06:02:02;;;;;;;;;6.00;4.33;;;;;23.20;35.84;102223.20;110372;1260;22775;-48
2022/05/18 06:04:29;;;;;;;;;4.33;3.00;;;;;23.23;36.10;102223.46;110485;1261;18822;-49
2022/05/18 06:06:56;;;;;;;;;6.00;5.00;;;;;23.28;36.33;102223.27;110403;1261;19802;-49
2022/05/18 06:09:24;;;;;;;;;6.33;6.33;;;;;23.28;36.25;102219.58;110411;1260;18456;-52
2022/05/18 06:11:51;;;;;;;;;5.67;5.33;;;;;23.29;36.08;102224.46;110455;1259;18767;-49
2022/05/18 06:14:18;;;;;;;;;5.00;5.00;;;;;23.29;35.90;102224.98;110473;1261;19744;-50
2022/05/18 06:16:46;;;;;;;;;6.00;6.00;;;;;23.29;35.87;102225.70;110486;1260;18505;-49
2022/05/18 06:19:14;;;;;;;;;5.67;5.00;;;;;23.29;35.95;102231.52;110469;1259;18844;-48
2022/05/18 06:21:41;;;;;;;;;5.00;5.00;;;;;23.23;35.82;102237.31;110259;1259;19525;-49
2022/05/18 06:24:09;;;;;;;;;6.00;5.00;;;;;23.16;35.78;102245.05;110414;1259;18448;-48
2022/05/18 06:26:36;;;;;;;;;5.00;5.00;;;;;23.05;34.46;102247.10;110420;1258;18834;-50
2022/05/18 06:29:04;;;;;;;;;5.00;3.00;;;;;22.95;33.68;102256.21;110396;1259;19643;-51
2022/05/18 06:31:31;;;;;;;;;3.00;3.00;;;;;22.81;32.57;102258.71;110295;1261;18799;-48
2022/05/18 06:33:58;;;;;;;;;3.00;2.33;;;;;22.65;32.27;102249.46;110452;1259;20801;-49
2022/05/18 06:36:25;;;;;;;;;3.00;2.33;;;;;22.64;32.35;102255.58;110449;1259;19760;-50
2022/05/18 06:38:53;;;;;;;;;3.00;2.67;;;;;22.65;31.69;102258.59;110499;1259;19894;-50
2022/05/18 06:41:23;;;;;;;;;3.67;3.67;;;;;22.62;31.42;102259.27;110540;1258;19980;-50
2022/05/18 06:43:50;;;;;;;;;3.00;2.33;;;;;22.59;30.98;102261.91;110504;1259;19601;-49
2022/05/18 06:46:17;;;;;;;;;5.00;3.00;;;;;22.56;30.88;102260.64;110532;1259;18718;-49
2022/05/18 06:48:45;;;;;;;;;2.00;2.00;;;;;22.55;30.56;102262.72;110451;1259;18881;-49
2022/05/18 06:51:12;;;;;;;;;2.00;2.00;;;;;22.55;30.04;102263.60;110410;1260;19780;-49
2022/05/18 06:53:40;;;;;;;;;3.00;3.00;;;;;22.58;29.94;102261.13;110540;1258;18550;-50
2022/05/18 06:56:08;;;;;;;;;3.00;3.00;;;;;22.57;29.68;102263.17;110441;1258;18973;-50
2022/05/18 06:58:35;;;;;;;;;3.00;3.00;;;;;22.54;29.36;102267.75;110433;1259;19638;-52
2022/05/18 07:01:03;;;;;;;;;3.00;3.00;;;;;22.53;29.74;102266.95;110595;1258;18816;-49
2022/05/18 07:03:30;;;;;;;;;2.00;2.00;;;;;22.59;30.84;102261.36;110562;1258;19418;-48
2022/05/18 07:05:57;;;;;;;;;2.67;2.00;;;;;22.78;30.77;102268.81;110494;1259;20269;-48
2022/05/18 07:08:25;;;;;;;;;2.00;2.00;;;;;22.92;32.13;102265.03;110571;1259;18356;-47
2022/05/18 07:10:52;;;;;;;;;3.00;3.00;;;;;23.03;32.82;102267.72;110512;1259;19149;-49
2022/05/18 07:13:19;;;;;;;;;3.00;2.00;;;;;23.12;32.72;102271.58;110379;1259;20867;-48
2022/05/18 07:15:46;;;;;;;;;2.00;2.00;;;;;23.17;33.07;102274.30;110391;1259;23483;-47
2022/05/18 07:18:13;;;;;;;;;2.00;2.00;;;;;23.23;33.32;102275.38;110452;1259;18884;-48
2022/05/18 07:20:41;;;;;;;;;2.00;2.00;;;;;23.26;33.52;102272.88;110527;1258;19539;-50
2022/05/18 07:23:08;;;;;;;;;3.67;3.00;;;;;23.32;33.85;102278.33;110624;1258;18805;-50
2022/05/18 07:25:35;;;;;;;;;3.67;3.67;;;;;23.36;33.82;102280.59;110559;1259;18755;-48
2022/05/18 07:28:02;;;;;;;;;2.00;2.00;;;;;23.39;33.93;102279.56;110536;1259;20297;-49
2022/05/18 07:30:30;;;;;;;;;2.50;2.50;;;;;23.38;33.81;102276.80;110468;1259;18500;-49
2022/05/18 07:32:58;;;;;;;;;2.67;2.33;;;;;23.35;33.72;102273.42;110444;1259;22393;-49
2022/05/18 07:35:28;;;;;;;;;3.00;3.00;;;;;23.38;33.88;102277.13;110489;1259;19412;-51
2022/05/18 07:37:55;;;;;;;;;3.00;3.00;;;;;23.38;34.00;102277.91;110520;1259;18455;-52
2022/05/18 07:40:22;;;;;;;;;2.00;2.00;;;;;23.37;34.09;102273.80;110552;1259;18860;-48
2022/05/18 07:42:54;;;;;;;;;2.00;2.00;;;;;23.39;34.26;102275.22;110457;1258;19898;-49
2022/05/18 07:45:22;;;;;;;;;3.00;3.00;;;;;23.39;33.98;102270.84;110413;1259;18483;-50
2022/05/18 07:47:51;;;;;;;;;2.00;2.00;;;;;23.39;34.28;102270.70;110482;1259;18869;-48
2022/05/18 07:50:18;;;;;;;;;3.00;3.00;;;;;23.38;34.19;102276.00;110410;1259;19466;-49
2022/05/18 07:52:45;;;;;;;;;5.00;3.00;;;;;23.38;34.31;102275.12;110297;1259;18531;-51
2022/05/18 07:55:12;;;;;;;;;5.67;3.00;;;;;23.38;34.43;102274.05;110436;1258;22424;-50
2022/05/18 07:57:40;;;;;;;;;6.00;5.67;;;;;23.37;34.53;102272.09;110378;1259;19624;-49
2022/05/18 08:00:07;;;;;;;;;6.00;5.00;;;;;23.38;34.41;102270.18;110342;1259;18812;-52
2022/05/18 08:02:35;;;;;;;;;3.00;3.00;;;;;23.38;34.50;102271.11;110491;1259;19304;-50
2022/05/18 08:05:02;;;;;;;;;6.00;5.67;;;;;23.35;34.45;102268.85;110483;1259;20945;-50
2022/05/18 08:07:29;;;;;;;;;3.00;3.00;;;;;23.31;34.39;102266.52;110439;1259;18948;-53
2022/05/18 08:15:26;;;;;;;;;3.00;3.00;;;;;23.20;32.30;102257.50;110328;1259;18685;-48
2022/05/18 08:17:53;;;;;;;;;3.67;3.00;;;;;23.06;31.10;102259.27;110533;1258;18678;-49
2022/05/18 08:20:21;;;;;;;;;2.00;2.00;;;;;22.92;30.34;102259.92;110503;1258;19540;-48
2022/05/18 08:22:48;;;;;;;;;2.00;2.00;;;;;22.82;29.03;102256.35;110493;1258;20116;-50
2022/05/18 08:25:15;;;;;;;;;3.67;3.00;;;;;22.75;28.71;102251.73;110508;1258;19094;-49
2022/05/18 08:27:43;;;;;;;;;3.00;2.00;;;;;22.72;28.18;102252.48;110426;1259;20208;-49
2022/05/18 08:30:10;;;;;;;;;2.00;2.00;;;;;22.61;27.58;102252.50;110466;1258;18655;-50
2022/05/18 08:32:37;;;;;;;;;2.00;2.00;;;;;22.60;27.60;102251.13;110550;1259;20475;-49
2022/05/18 08:35:04;;;;;;;;;3.00;3.00;;;;;22.55;27.10;102247.55;110438;1259;19462;-49
2022/05/18 08:37:31;;;;;;;;;3.00;2.00;;;;;22.24;26.45;102249.98;110493;1258;18468;-50
2022/05/18 08:39:59;;;;;;;;;3.00;3.00;;;;;21.91;26.32;102246.23;110683;1258;19605;-49
2022/05/18 08:42:26;;;;;;;;;2.00;2.00;;;;;21.73;26.31;102250.35;110445;1259;19540;-49
2022/05/18 08:44:53;;;;;;;;;2.00;2.00;;;;;21.76;26.12;102248.95;110535;1259;18445;-48
2022/05/18 08:47:20;;;;;;;;;2.00;2.00;;;;;21.77;26.16;102245.70;110490;1259;18919;-49
2022/05/18 08:49:48;;;;;;;;;2.00;2.00;;;;;21.89;25.92;102248.74;110495;1258;20149;-50
2022/05/18 08:52:15;;;;;;;;;2.00;2.00;;;;;22.03;25.89;102244.13;110384;1259;22329;-48
2022/05/18 08:54:42;;;;;;;;;2.00;2.00;;;;;22.13;25.72;102241.56;110426;1259;18908;-50
2022/05/18 08:57:09;;;;;;;;;2.00;2.00;;;;;22.21;25.55;102234.77;110537;1258;21942;-52
2022/05/18 08:59:36;;;;;;;;;2.00;2.00;;;;;22.29;25.67;102233.22;110556;1258;18530;-49
2022/05/18 09:02:04;;;;;;;;;3.00;2.00;;;;;22.28;25.25;102235.87;110435;1259;18761;-49
2022/05/18 09:04:31;;;;;;;;;2.00;2.00;;;;;21.77;24.96;102235.04;110471;1259;19688;-48
2022/05/18 09:06:58;;;;;;;;;2.00;2.00;;;;;21.61;25.11;102232.39;110392;1259;18874;-49
2022/05/18 09:12:11;;;;;;;;;2.00;2.00;;;;;21.78;24.91;102236.77;110685;1259;19504;-49
2022/05/18 09:14:38;;;;;;;;;2.00;2.00;;;;;21.82;24.63;102237.05;110265;1259;18884;-48
2022/05/18 09:17:05;;;;;;;;;2.00;2.00;;;;;21.94;24.48;102232.31;110430;1259;23603;-49
2022/05/18 09:19:33;;;;;;;;;2.00;2.00;;;;;22.12;24.53;102232.34;110424;1258;19510;-50
2022/05/18 09:22:00;;;;;;;;;1.50;1.50;;;;;22.21;24.52;102234.20;110482;1259;21221;-49
2022/05/18 09:24:27;;;;;;;;;2.33;2.00;;;;;22.12;24.31;102229.95;110387;1259;19863;-47
2022/05/18 09:26:54;;;;;;;;;2.00;2.00;;;;;22.18;24.38;102226.16;110504;1259;22158;-50
2022/05/18 09:29:22;;;;;;;;;2.00;2.00;;;;;22.24;24.41;102227.86;110473;1258;18440;-49
2022/05/18 09:31:49;;;;;;;;;2.50;2.00;;;;;22.29;24.29;102224.48;110422;1259;22935;-48
2022/05/18 09:34:17;;;;;;;;;2.00;2.00;;;;;22.25;23.94;102225.61;110434;1258;19497;-52
2022/05/18 09:36:44;;;;;;;;;2.00;2.00;;;;;22.10;23.74;102225.63;110353;1259;18400;-48
2022/05/18 09:39:13;;;;;;;;;4.00;3.33;;;;;22.07;24.07;102221.17;110624;1258;23599;-50
2022/05/18 09:41:40;;;;;;;;;2.00;2.00;;;;;22.16;24.24;102221.20;110503;1258;20904;-48
2022/05/18 09:44:07;;;;;;;;;2.00;2.00;;;;;22.24;23.95;102222.81;110549;1259;18508;-51
2022/05/18 09:46:35;;;;;;;;;2.00;2.00;;;;;22.25;23.61;102223.05;110629;1259;19008;-49
2022/05/18 09:49:02;;;;;;;;;2.00;2.00;;;;;22.30;23.51;102226.63;110541;1258;19476;-50
2022/05/18 09:51:29;;;;;;;;;3.00;3.00;;;;;22.32;23.48;102222.80;110471;1259;18840;-49
2022/05/18 09:53:57;;;;;;;;;2.00;2.00;;;;;22.33;23.54;102219.94;110568;1259;19051;-52
2022/05/18 09:56:24;;;;;;;;;2.00;2.00;;;;;22.33;23.17;102222.44;110496;1259;19520;-49
2022/05/18 09:58:51;;;;;;;;;2.00;2.00;;;;;22.35;23.00;102220.92;110503;1258;22229;-48
2022/05/18 10:09:44;;;;;;;;;2.00;2.00;;;;;22.10;22.56;102219.96;110223;1264;22214;-48
2022/05/18 10:12:12;;;;;;;;;2.00;2.00;;;;;22.07;22.38;102218.11;110187;1264;19896;-50
2022/05/18 10:14:39;;;;;;;;;3.00;3.00;;;;;21.99;22.39;102213.73;110202;1264;18406;-50
2022/05/18 10:17:07;;;;;;;;;2.00;2.00;;;;;22.02;22.82;102210.50;110147;1265;19318;-50
2022/05/18 10:19:34;;;;;;;;;1.33;1.33;;;;;22.15;22.79;102212.62;110157;1264;19502;-48
2022/05/18 10:22:01;;;;;;;;;2.00;2.00;;;;;22.21;22.72;102207.80;110149;1264;21897;-50
2022/05/18 10:24:29;;;;;;;;;2.00;2.00;;;;;22.26;23.19;102207.83;110114;1264;22235;-49
2022/05/18 10:26:56;;;;;;;;;2.00;2.00;;;;;22.32;23.33;102203.48;110236;1265;22938;-49
2022/05/18 10:29:23;;;;;;;;;2.67;2.67;;;;;22.36;23.06;102204.08;110237;1264;18471;-48
2022/05/18 10:31:50;;;;;;;;;2.00;2.00;;;;;22.38;22.55;102198.80;110146;1264;18671;-50
2022/05/18 10:34:18;;;;;;;;;2.00;2.00;;;;;22.39;22.40;102197.07;110115;1265;19515;-48
2022/05/18 10:36:46;;;;;;;;;3.00;3.00;;;;;22.38;22.02;102194.12;110211;1265;18728;-49
2022/05/18 10:39:13;;;;;;;;;2.50;2.50;;;;;22.30;22.45;102188.89;110317;1261;19201;-49
2022/05/18 10:41:40;;;;;;;;;2.00;2.00;;;;;22.30;22.53;102180.17;110433;1259;19539;-50
2022/05/18 10:44:07;;;;;;;;;2.33;2.33;;;;;22.29;22.59;102182.06;110473;1260;21124;-49
2022/05/18 10:46:35;;;;;;;;;2.00;2.00;;;;;22.34;23.13;102180.87;110457;1261;22958;-51
2022/05/18 10:49:02;;;;;;;;;3.00;3.00;;;;;22.26;22.69;102176.19;110478;1261;19515;-49
2022/05/18 10:51:29;;;;;;;;;3.00;2.00;;;;;22.20;22.64;102175.50;110440;1260;18417;-50
2022/05/18 10:53:56;;;;;;;;;2.00;2.00;;;;;22.24;22.77;102168.35;110506;1261;18769;-48
2022/05/18 10:56:24;;;;;;;;;2.00;2.00;;;;;22.30;22.49;102173.55;110459;1261;19503;-49
2022/05/18 10:58:51;;;;;;;;;4.00;3.00;;;;;22.34;22.42;102171.30;110350;1259;22749;-49
2022/05/18 11:01:19;;;;;;;;;2.00;2.00;;;;;22.39;22.17;102170.30;110511;1259;21603;-50
2022/05/18 11:03:46;;;;;;;;;2.00;2.00;;;;;22.39;22.28;102170.50;110470;1259;20855;-51
2022/05/18 11:06:13;;;;;;;;;2.00;2.00;;;;;22.37;22.13;102174.89;110518;1259;18648;-54
2022/05/18 11:08:40;;;;;;;;;2.00;2.00;;;;;22.36;22.21;102168.83;110495;1259;21306;-49
2022/05/18 11:11:08;;;;;;;;;2.00;2.00;;;;;22.16;21.64;102164.04;110501;1259;19948;-47
2022/05/18 11:13:35;;;;;;;;;2.67;2.00;;;;;21.98;21.53;102155.41;110502;1259;18590;-49
2022/05/18 11:16:02;;;;;;;;;2.67;2.67;;;;;22.08;21.71;102157.86;110431;1259;18809;-50
2022/05/18 11:18:29;;;;;;;;;2.00;2.00;;;;;22.11;21.85;102153.76;110485;1259;19670;-49
2022/05/18 11:20:57;;;;;;;;;2.33;2.33;;;;;22.13;22.05;102154.72;110533;1258;22242;-47
2022/05/18 11:23:24;;;;;;;;;2.00;2.00;;;;;22.21;22.11;102152.61;110378;1259;18668;-48
2022/05/18 11:25:51;;;;;;;;;2.00;2.00;;;;;22.27;22.29;102145.81;110499;1258;20562;-48
2022/05/18 11:28:18;;;;;;;;;1.00;1.00;;;;;22.36;22.63;102143.09;110486;1259;20627;-50
2022/05/18 11:30:45;;;;;;;;;2.00;2.00;;;;;22.39;22.64;102141.34;110424;1262;22838;-49
2022/05/18 11:33:13;;;;;;;;;3.00;2.00;;;;;22.45;22.81;102133.96;110406;1258;19446;-50
2022/05/18 11:35:40;;;;;;;;;2.00;2.00;;;;;22.48;22.72;102133.68;110446;1261;19244;-49
2022/05/18 11:38:07;;;;;;;;;3.00;2.00;;;;;22.47;22.46;102127.49;110470;1262;19032;-49
2022/05/18 11:40:34;;;;;;;;;2.00;2.00;;;;;22.37;21.82;102127.66;110442;1260;19612;-48
2022/05/18 11:43:02;;;;;;;;;2.00;2.00;;;;;22.36;21.71;102124.85;110458;1261;18415;-49
2022/05/18 11:45:29;;;;;;;;;2.00;2.00;;;;;22.36;21.63;102120.83;110444;1261;18858;-48
2022/05/18 11:47:56;;;;;;;;;2.00;2.00;;;;;22.42;22.01;102115.91;110530;1260;19666;-49
2022/05/18 11:50:23;;;;;;;;;2.50;2.00;;;;;22.45;22.00;102110.87;110431;1261;22085;-51
2022/05/18 11:52:51;;;;;;;;;2.00;2.00;;;;;22.46;21.92;102109.37;110434;1260;18871;-50
2022/05/18 11:55:18;;;;;;;;;2.00;2.00;;;;;22.49;22.34;102104.65;110444;1259;19544;-50
2022/05/18 11:57:45;;;;;;;;;1.67;1.67;;;;;22.53;22.16;102104.59;110400;1259;18454;-54